createdAt,value
2022-09-12T00:00:23.246Z,10.17
2022-09-12T00:02:55.124Z,10.22
2022-09-12T00:05:22.622Z,10.18
2022-09-12T00:07:50.560Z,10.22
2022-09-12T00:10:22.517Z,10.24
2022-09-12T00:12:55.037Z,10.29
2022-09-12T00:15:22.743Z,10.34
2022-09-12T00:17:50.289Z,10.35
2022-09-12T00:20:22.114Z,10.38
2022-09-12T00:22:49.769Z,10.40
2022-09-12T00:25:17.378Z,10.39
2022-09-12T00:27:46.451Z,10.46
2022-09-12T00:30:14.148Z,10.46
2022-09-12T00:32:42.359Z,10.52
2022-09-12T00:35:09.997Z,10.55
2022-09-12T00:37:37.680Z,10.60
2022-09-12T00:40:05.658Z,10.62
2022-09-12T00:42:33.271Z,10.65
2022-09-12T00:45:00.861Z,10.69
2022-09-12T00:47:28.769Z,10.76
2022-09-12T00:50:08.122Z,10.81
2022-09-12T00:52:45.320Z,10.84
2022-09-12T00:55:20.256Z,10.91
2022-09-12T00:57:58.264Z,10.94
2022-09-12T01:00:26.765Z,10.98
2022-09-12T01:02:56.968Z,11.04
2022-09-12T01:05:24.627Z,11.08
2022-09-12T01:07:52.363Z,11.19
2022-09-12T01:10:20.542Z,11.30
2022-09-12T01:12:48.210Z,11.34
2022-09-12T01:15:16.049Z,11.44
2022-09-12T01:18:10.856Z,11.52
2022-09-12T01:20:51.719Z,11.57
2022-09-12T01:23:44.061Z,11.63
2022-09-12T01:26:32.861Z,11.70
2022-09-12T01:29:06.569Z,11.76
2022-09-12T01:31:57.889Z,11.81
2022-09-12T01:34:42.971Z,11.85
2022-09-12T01:37:19.459Z,11.85
2022-09-12T01:40:29.604Z,11.92
2022-09-12T01:43:21.153Z,11.97
2022-09-12T01:45:54.563Z,11.91
2022-09-12T01:48:28.298Z,12.00
2022-09-12T01:51:21.600Z,12.08
2022-09-12T01:53:55.872Z,12.14
2022-09-12T01:56:26.618Z,12.17
2022-09-12T01:59:44.464Z,12.16
2022-09-12T02:02:36.545Z,12.17
2022-09-12T02:05:10.383Z,12.13
2022-09-12T02:07:45.285Z,12.21
2022-09-12T02:10:13.840Z,12.21
2022-09-12T02:12:56.048Z,12.23
2022-09-12T02:15:25.901Z,12.24
2022-09-12T02:17:53.409Z,12.30
2022-09-12T02:20:47.072Z,12.30
2022-09-12T02:23:22.627Z,12.25
2022-09-12T02:25:53.004Z,12.31
2022-09-12T02:28:30.672Z,12.31
2022-09-12T02:31:13.899Z,12.28
2022-09-12T02:33:44.196Z,12.27
2022-09-12T02:36:33.016Z,12.29
2022-09-12T02:39:00.543Z,12.32
2022-09-12T02:41:28.021Z,12.35
2022-09-12T02:43:55.543Z,12.39
2022-09-12T02:46:28.220Z,12.37
2022-09-12T02:48:56.441Z,12.38
2022-09-12T02:51:24.022Z,12.37
2022-09-12T02:53:51.956Z,12.39
2022-09-12T02:56:24.023Z,12.41
2022-09-12T02:58:51.668Z,12.41
2022-09-12T03:01:36.146Z,12.42
2022-09-12T03:04:35.331Z,12.38
2022-09-12T03:07:05.521Z,12.37
2022-09-12T03:09:58.223Z,12.36
2022-09-12T03:12:52.569Z,12.32
2022-09-12T03:15:35.649Z,12.20
2022-09-12T03:18:21.170Z,12.21
2022-09-12T03:21:07.473Z,12.27
2022-09-12T03:23:39.484Z,12.29
2022-09-12T03:26:16.072Z,12.35
2022-09-12T03:28:44.194Z,12.41
2022-09-12T03:31:15.604Z,12.47
2022-09-12T03:33:42.996Z,12.48
2022-09-12T03:36:20.752Z,12.51
2022-09-12T03:38:48.321Z,12.60
2022-09-12T03:41:15.852Z,12.71
2022-09-12T03:43:43.469Z,12.79
2022-09-12T03:46:10.961Z,12.91
2022-09-12T03:48:40.788Z,13.05
2022-09-12T03:51:09.852Z,13.13
2022-09-12T03:53:37.381Z,13.23
2022-09-12T03:56:08.844Z,13.29
2022-09-12T03:58:36.580Z,13.38
2022-09-12T04:01:12.868Z,13.54
2022-09-12T04:03:41.449Z,13.64
2022-09-12T04:06:09.974Z,13.76
2022-09-12T04:08:37.804Z,13.86
2022-09-12T04:11:06.531Z,13.96
2022-09-12T04:13:35.230Z,14.03
2022-09-12T04:16:03.268Z,14.18
2022-09-12T04:18:31.135Z,14.28
2022-09-12T04:20:58.581Z,14.32
2022-09-12T04:23:26.101Z,14.39
2022-09-12T04:25:57.461Z,14.51
2022-09-12T04:28:25.375Z,14.56
2022-09-12T04:30:52.939Z,14.67
2022-09-12T04:33:20.591Z,14.75
2022-09-12T04:35:48.387Z,14.73
2022-09-12T04:38:15.937Z,14.79
2022-09-12T04:40:43.460Z,14.88
2022-09-12T04:43:14.411Z,14.83
2022-09-12T04:45:42.271Z,14.94
2022-09-12T04:48:09.820Z,15.03
2022-09-12T04:50:37.279Z,15.11
2022-09-12T04:53:04.851Z,15.35
2022-09-12T04:55:34.364Z,15.55
2022-09-12T04:58:02.281Z,15.70
2022-09-12T05:00:29.888Z,15.79
2022-09-12T05:02:57.413Z,15.86
2022-09-12T05:05:24.929Z,15.76
2022-09-12T05:07:53.056Z,15.80
2022-09-12T05:10:20.532Z,15.91
2022-09-12T05:12:48.485Z,15.96
2022-09-12T05:15:16.208Z,15.97
2022-09-12T05:17:43.816Z,15.96
2022-09-12T05:20:12.958Z,15.94
2022-09-12T05:22:40.396Z,15.86
2022-09-12T05:25:08.760Z,15.89
2022-09-12T05:27:36.302Z,15.92
2022-09-12T05:30:04.737Z,16.00
2022-09-12T05:32:32.645Z,16.12
2022-09-12T05:35:00.499Z,16.27
2022-09-12T05:37:28.872Z,16.35
2022-09-12T05:39:56.677Z,16.45
2022-09-12T05:42:24.168Z,16.60
2022-09-12T05:44:51.845Z,16.69
2022-09-12T05:47:19.365Z,16.79
2022-09-12T05:49:48.126Z,16.83
2022-09-12T05:52:16.337Z,16.85
2022-09-12T05:54:43.807Z,16.91
2022-09-12T05:57:11.299Z,16.98
2022-09-12T05:59:39.451Z,17.08
2022-09-12T06:02:07.367Z,17.18
2022-09-12T06:04:34.926Z,17.23
2022-09-12T06:07:02.416Z,17.22
2022-09-12T06:09:30.231Z,17.25
2022-09-12T06:11:57.694Z,17.19
2022-09-12T06:14:25.525Z,17.13
2022-09-12T06:16:53.077Z,17.24
2022-09-12T06:19:21.777Z,17.18
2022-09-12T06:21:49.826Z,17.35
2022-09-12T06:24:18.006Z,17.33
2022-09-12T06:26:45.597Z,17.38
2022-09-12T06:29:13.478Z,17.43
2022-09-12T06:31:41.983Z,17.52
2022-09-12T06:34:11.561Z,17.58
2022-09-12T06:36:46.581Z,17.67
2022-09-12T06:39:16.327Z,17.75
2022-09-12T06:41:44.617Z,17.75
2022-09-12T06:44:16.818Z,17.87
2022-09-12T06:46:44.671Z,17.93
2022-09-12T06:49:12.195Z,18.12
2022-09-12T06:51:42.197Z,18.33
2022-09-12T06:54:13.062Z,18.48
2022-09-12T06:56:40.920Z,18.62
2022-09-12T06:59:08.731Z,18.78
2022-09-12T07:01:36.644Z,18.77
2022-09-12T07:04:04.798Z,18.85
2022-09-12T07:06:39.981Z,19.02
2022-09-12T07:09:09.929Z,19.05
2022-09-12T07:11:38.186Z,19.06
2022-09-12T07:14:06.622Z,19.03
2022-09-12T07:16:37.674Z,18.90
2022-09-12T07:19:06.741Z,18.99
2022-09-12T07:21:39.090Z,18.98
2022-09-12T07:24:08.803Z,18.96
2022-09-12T07:26:36.455Z,18.88
2022-09-12T07:29:32.251Z,18.86
2022-09-12T07:31:52.714Z,18.96
2022-09-12T07:34:20.184Z,19.09
2022-09-12T07:36:47.976Z,19.22
2022-09-12T07:39:15.444Z,19.19
2022-09-12T07:41:43.364Z,19.23
2022-09-12T07:44:10.838Z,19.14
2022-09-12T07:46:40.071Z,19.11
2022-09-12T07:49:08.466Z,19.10
2022-09-12T07:51:36.272Z,18.90
2022-09-12T07:54:07.930Z,18.71
2022-09-12T07:56:38.887Z,18.59
2022-09-12T07:59:08.272Z,18.42
2022-09-12T08:01:35.889Z,18.32
2022-09-12T08:04:05.113Z,18.33
2022-09-12T08:06:34.012Z,18.26
2022-09-12T08:09:02.043Z,18.23
2022-09-12T08:11:30.345Z,18.34
2022-09-12T08:13:58.334Z,18.46
2022-09-12T08:16:27.901Z,18.48
2022-09-12T08:18:55.595Z,18.44
2022-09-12T08:21:24.857Z,18.52
2022-09-12T08:23:57.221Z,18.39
2022-09-12T08:26:25.251Z,18.62
2022-09-12T08:28:53.538Z,18.58
2022-09-12T08:31:22.781Z,18.65
2022-09-12T08:33:50.531Z,18.52
2022-09-12T08:36:19.993Z,18.65
2022-09-12T08:38:49.594Z,18.71
2022-09-12T08:41:32.011Z,18.82
2022-09-12T08:43:59.710Z,18.92
2022-09-12T08:46:41.204Z,19.19
2022-09-12T08:49:10.069Z,19.51
2022-09-12T08:51:38.185Z,19.78
2022-09-12T08:54:05.743Z,20.26
2022-09-12T08:56:35.822Z,20.65
2022-09-12T08:59:03.411Z,20.66
2022-09-12T09:01:32.100Z,20.92
2022-09-12T09:04:12.316Z,20.90
2022-09-12T09:07:01.389Z,21.01
2022-09-12T09:09:42.535Z,21.14
2022-09-12T09:12:19.603Z,21.15
2022-09-12T09:14:51.557Z,21.18
2022-09-12T09:17:26.451Z,21.17
2022-09-12T09:20:13.569Z,21.34
2022-09-12T09:23:16.058Z,21.38
2022-09-12T09:25:46.249Z,21.70
2022-09-12T09:28:19.619Z,21.91
2022-09-12T09:30:47.224Z,21.94
2022-09-12T09:33:25.047Z,21.85
2022-09-12T09:35:59.375Z,22.17
2022-09-12T09:38:42.013Z,21.84
2022-09-12T09:41:41.442Z,22.01
2022-09-12T09:44:09.080Z,21.90
2022-09-12T09:46:36.798Z,21.79
2022-09-12T09:49:05.649Z,21.47
2022-09-12T09:51:35.850Z,21.58
2022-09-12T09:54:21.838Z,21.26
2022-09-12T09:56:49.636Z,21.71
2022-09-12T09:59:18.142Z,21.81
2022-09-12T10:01:47.407Z,21.95
2022-09-12T10:04:22.561Z,22.07
2022-09-12T10:07:19.445Z,22.09
2022-09-12T10:10:19.640Z,21.95
2022-09-12T10:12:47.322Z,22.34
2022-09-12T10:15:19.770Z,22.38
2022-09-12T10:17:48.537Z,21.98
2022-09-12T10:20:35.519Z,22.22
2022-09-12T10:23:30.827Z,22.09
2022-09-12T10:26:01.544Z,22.08
2022-09-12T10:28:36.150Z,22.30
2022-09-12T10:31:03.799Z,22.02
2022-09-12T10:33:37.529Z,21.90
2022-09-12T10:36:05.155Z,21.85
2022-09-12T10:38:32.805Z,22.13
2022-09-12T10:41:06.702Z,22.00
2022-09-12T10:43:34.345Z,22.06
2022-09-12T10:46:20.257Z,22.33
2022-09-12T10:48:51.817Z,22.30
2022-09-12T10:51:25.299Z,22.57
2022-09-12T10:53:54.726Z,22.77
2022-09-12T10:56:23.282Z,23.15
2022-09-12T10:59:09.220Z,23.04
2022-09-12T11:01:45.329Z,23.20
2022-09-12T11:04:48.591Z,23.63
2022-09-12T11:07:40.482Z,23.45
2022-09-12T11:10:27.155Z,23.06
2022-09-12T11:13:06.240Z,23.15
2022-09-12T11:15:58.175Z,23.08
2022-09-12T11:18:28.701Z,22.94
2022-09-12T11:21:03.088Z,22.72
2022-09-12T11:24:15.520Z,22.85
2022-09-12T11:26:55.370Z,23.09
2022-09-12T11:29:46.973Z,23.11
2022-09-12T11:32:51.445Z,23.13
2022-09-12T11:35:41.090Z,23.17
2022-09-12T11:38:20.369Z,22.95
2022-09-12T11:40:50.690Z,23.30
2022-09-12T11:43:38.372Z,23.64
2022-09-12T11:46:24.633Z,23.69
2022-09-12T11:48:57.600Z,23.53
2022-09-12T11:51:32.388Z,23.49
2022-09-12T11:54:02.770Z,23.25
2022-09-12T11:56:30.341Z,23.28
2022-09-12T11:59:04.381Z,23.57
2022-09-12T12:01:40.444Z,23.61
2022-09-12T12:04:12.292Z,23.44
2022-09-12T12:06:52.892Z,22.89
2022-09-12T12:09:20.416Z,22.93
2022-09-12T12:11:53.351Z,23.01
2022-09-12T12:14:25.925Z,23.38
2022-09-12T12:16:53.401Z,23.50
2022-09-12T12:19:30.730Z,23.69
2022-09-12T12:22:12.663Z,23.45
2022-09-12T12:24:58.840Z,23.60
2022-09-12T12:27:48.240Z,23.50
2022-09-12T12:30:31.108Z,23.67
2022-09-12T12:33:11.006Z,23.43
2022-09-12T12:35:41.788Z,23.31
2022-09-12T12:38:31.203Z,23.49
2022-09-12T12:41:16.942Z,23.75
2022-09-12T12:43:47.555Z,24.11
2022-09-12T12:46:16.437Z,24.94
2022-09-12T12:49:05.343Z,25.22
2022-09-12T12:51:45.735Z,25.60
2022-09-12T12:54:51.273Z,25.70
2022-09-12T12:57:27.806Z,26.08
2022-09-12T13:00:06.974Z,26.52
2022-09-12T13:02:49.223Z,25.86
2022-09-12T13:05:19.900Z,25.35
2022-09-12T13:07:48.365Z,25.45
2022-09-12T13:10:28.946Z,25.60
2022-09-12T13:12:58.176Z,25.47
2022-09-12T13:15:36.218Z,25.13
2022-09-12T13:18:11.322Z,24.87
2022-09-12T13:20:48.572Z,24.70
2022-09-12T13:23:27.829Z,24.88
2022-09-12T13:25:57.073Z,25.31
2022-09-12T13:28:26.501Z,25.40
2022-09-12T13:31:01.515Z,25.59
2022-09-12T13:33:50.997Z,25.40
2022-09-12T13:36:52.308Z,24.97
2022-09-12T13:39:19.717Z,24.78
2022-09-12T13:42:25.886Z,24.73
2022-09-12T13:44:59.125Z,24.49
2022-09-12T13:47:35.505Z,23.95
2022-09-12T13:50:03.800Z,24.30
2022-09-12T13:52:33.556Z,24.40
2022-09-12T13:55:01.166Z,24.33
2022-09-12T13:57:37.776Z,24.53
2022-09-12T14:00:20.694Z,24.52
2022-09-12T14:02:49.885Z,24.36
2022-09-12T14:05:22.731Z,24.26
2022-09-12T14:07:58.521Z,24.15
2022-09-12T14:10:30.436Z,24.06
2022-09-12T14:13:20.033Z,23.86
2022-09-12T14:15:49.120Z,23.61
2022-09-12T14:18:29.670Z,23.67
2022-09-12T14:21:00.936Z,23.76
2022-09-12T14:23:31.180Z,23.58
2022-09-12T14:26:01.198Z,23.43
2022-09-12T14:28:30.363Z,23.43
2022-09-12T14:31:04.076Z,23.26
2022-09-12T14:33:59.922Z,23.07
2022-09-12T14:36:44.499Z,22.84
2022-09-12T14:39:30.912Z,22.65
2022-09-12T14:42:17.756Z,22.46
2022-09-12T14:44:59.383Z,22.22
2022-09-12T14:47:27.882Z,22.13
2022-09-12T14:49:55.369Z,21.98
2022-09-12T14:52:30.767Z,21.91
2022-09-12T14:55:03.720Z,21.76
2022-09-12T14:57:33.854Z,21.65
2022-09-12T15:00:14.409Z,21.52
2022-09-12T15:02:42.845Z,21.43
2022-09-12T15:05:10.874Z,21.36
2022-09-12T15:07:44.142Z,21.30
2022-09-12T15:10:28.018Z,21.20
2022-09-12T15:13:19.715Z,21.14
2022-09-12T15:15:49.183Z,21.04
2022-09-12T15:18:18.350Z,20.97
2022-09-12T15:20:47.278Z,20.88
2022-09-12T15:23:19.192Z,20.77
2022-09-12T15:25:47.017Z,20.67
2022-09-12T15:28:19.431Z,20.56
2022-09-12T15:30:47.946Z,20.46
2022-09-12T15:33:16.641Z,20.35
2022-09-12T15:35:44.229Z,20.22
2022-09-12T15:38:12.342Z,20.13
2022-09-12T15:40:40.024Z,20.03
2022-09-12T15:43:07.543Z,19.91
2022-09-12T15:45:35.125Z,19.77
2022-09-12T15:48:03.528Z,19.68
2022-09-12T15:50:31.088Z,19.58
2022-09-12T15:52:58.690Z,19.47
2022-09-12T15:55:29.390Z,19.38
2022-09-12T15:57:56.973Z,19.32
2022-09-12T16:00:24.490Z,19.25
2022-09-12T16:02:52.727Z,19.20
2022-09-12T16:05:23.302Z,19.14
2022-09-12T16:07:52.569Z,19.05
2022-09-12T16:10:26.179Z,18.97
2022-09-12T16:12:53.732Z,18.87
2022-09-12T16:15:23.468Z,18.80
2022-09-12T16:17:51.058Z,18.74
2022-09-12T16:20:19.440Z,18.67
2022-09-12T16:22:46.968Z,18.61
2022-09-12T16:25:14.516Z,18.53
2022-09-12T16:27:42.582Z,18.48
2022-09-12T16:30:10.597Z,18.44
2022-09-12T16:32:38.532Z,18.40
2022-09-12T16:35:06.624Z,18.34
2022-09-12T16:37:34.771Z,18.28
2022-09-12T16:40:03.700Z,18.22
2022-09-12T16:42:31.446Z,18.17
2022-09-12T16:44:58.989Z,18.12
2022-09-12T16:47:26.562Z,18.07
2022-09-12T16:49:54.301Z,18.01
2022-09-12T16:52:22.089Z,17.97
2022-09-12T16:54:49.541Z,17.91
2022-09-12T16:57:17.159Z,17.89
2022-09-12T16:59:44.700Z,17.86
2022-09-12T17:02:13.731Z,17.83
2022-09-12T17:04:41.595Z,17.78
2022-09-12T17:07:10.569Z,17.74
2022-09-12T17:09:38.611Z,17.72
2022-09-12T17:12:06.245Z,17.73
2022-09-12T17:14:37.041Z,17.67
2022-09-12T17:17:04.896Z,17.65
2022-09-12T17:19:33.172Z,17.63
2022-09-12T17:22:00.669Z,17.63
2022-09-12T17:24:28.153Z,17.60
2022-09-12T17:26:57.205Z,17.56
2022-09-12T17:29:24.658Z,17.53
2022-09-12T17:31:52.474Z,17.55
2022-09-12T17:34:20.225Z,17.54
2022-09-12T17:36:48.601Z,17.52
2022-09-12T17:39:16.077Z,17.49
2022-09-12T17:41:44.080Z,17.51
2022-09-12T17:44:12.604Z,17.51
2022-09-12T17:46:41.437Z,17.48
2022-09-12T17:49:12.079Z,17.49
2022-09-12T17:51:40.525Z,17.47
2022-09-12T17:54:14.211Z,17.43
2022-09-12T17:56:42.900Z,17.41
2022-09-12T17:59:13.564Z,17.39
2022-09-12T18:01:59.805Z,17.41
2022-09-12T18:04:27.841Z,17.39
2022-09-12T18:06:57.705Z,17.36
2022-09-12T18:09:25.554Z,17.34
2022-09-12T18:11:53.373Z,17.33
2022-09-12T18:14:21.106Z,17.31
2022-09-12T18:16:48.693Z,17.34
2022-09-12T18:19:16.548Z,17.32
2022-09-12T18:21:44.114Z,17.28
2022-09-12T18:24:11.949Z,17.28
2022-09-12T18:26:40.320Z,17.25
2022-09-12T18:29:07.998Z,17.25
2022-09-12T18:31:35.871Z,17.25
2022-09-12T18:34:05.988Z,17.24
2022-09-12T18:36:34.678Z,17.23
2022-09-12T18:39:02.233Z,17.23
2022-09-12T18:41:30.075Z,17.22
2022-09-12T18:43:58.786Z,17.20
2022-09-12T18:46:26.857Z,17.23
2022-09-12T18:48:58.103Z,17.18
2022-09-12T18:51:31.505Z,17.16
2022-09-12T18:54:01.254Z,17.11
2022-09-12T18:56:33.036Z,17.06
2022-09-12T18:59:01.964Z,16.97
2022-09-12T19:01:30.927Z,16.93
2022-09-12T19:03:59.189Z,16.82
2022-09-12T19:06:28.492Z,16.84
2022-09-12T19:08:56.725Z,16.81
2022-09-12T19:11:24.792Z,16.88
2022-09-12T19:13:53.272Z,16.90
2022-09-12T19:16:24.890Z,16.93
2022-09-12T19:18:52.805Z,16.91
2022-09-12T19:21:25.193Z,16.91
2022-09-12T19:23:53.609Z,16.89
2022-09-12T19:26:21.327Z,16.82
2022-09-12T19:28:48.914Z,16.84
2022-09-12T19:31:19.071Z,16.78
2022-09-12T19:33:46.910Z,16.77
2022-09-12T19:36:40.787Z,16.77
2022-09-12T19:39:04.455Z,16.80
2022-09-12T19:41:32.136Z,16.82
2022-09-12T19:43:59.919Z,16.82
2022-09-12T19:46:27.485Z,16.87
2022-09-12T19:48:55.345Z,16.93
2022-09-12T19:51:24.258Z,16.84
2022-09-12T19:53:52.019Z,16.83
2022-09-12T19:56:19.885Z,16.88
2022-09-12T19:58:51.012Z,16.81
2022-09-12T20:01:25.043Z,16.90
2022-09-12T20:03:53.936Z,16.95
2022-09-12T20:06:21.397Z,16.97
2022-09-12T20:08:49.071Z,16.92
2022-09-12T20:11:18.353Z,16.87
2022-09-12T20:14:02.421Z,16.84
2022-09-12T20:16:30.363Z,16.84
2022-09-12T20:18:59.958Z,16.87
2022-09-12T20:21:32.717Z,16.84
2022-09-12T20:24:03.330Z,16.69
2022-09-12T20:26:31.224Z,16.59
2022-09-12T20:28:58.917Z,16.60
2022-09-12T20:31:26.578Z,16.56
2022-09-12T20:33:54.501Z,16.55
2022-09-12T20:36:23.105Z,16.51
2022-09-12T20:38:56.968Z,16.48
2022-09-12T20:41:26.702Z,16.41
2022-09-12T20:43:55.401Z,16.40
2022-09-12T20:46:23.434Z,16.38
2022-09-12T20:48:51.223Z,16.35
2022-09-12T20:51:19.837Z,16.32
2022-09-12T20:53:47.963Z,16.31
2022-09-12T20:56:15.624Z,16.35
2022-09-12T20:58:44.419Z,16.40
2022-09-12T21:01:13.399Z,16.35
2022-09-12T21:03:41.630Z,16.31
2022-09-12T21:06:10.042Z,16.29
2022-09-12T21:08:37.599Z,16.26
2022-09-12T21:11:06.324Z,16.25
2022-09-12T21:13:33.895Z,16.24
2022-09-12T21:16:07.464Z,16.18
2022-09-12T21:18:35.272Z,16.18
2022-09-12T21:21:03.311Z,16.15
2022-09-12T21:23:31.621Z,15.99
2022-09-12T21:26:00.190Z,15.99
2022-09-12T21:28:27.908Z,15.97
2022-09-12T21:30:56.179Z,15.93
2022-09-12T21:33:23.849Z,15.87
2022-09-12T21:35:51.379Z,15.85
2022-09-12T21:38:19.198Z,15.81
2022-09-12T21:40:47.255Z,15.78
2022-09-12T21:43:15.057Z,15.77
2022-09-12T21:45:42.625Z,15.79
2022-09-12T21:48:13.625Z,15.66
2022-09-12T21:50:41.153Z,15.69
2022-09-12T21:53:08.681Z,15.73
2022-09-12T21:55:36.937Z,15.81
2022-09-12T21:58:04.391Z,15.87
2022-09-12T22:00:32.139Z,15.92
2022-09-12T22:02:59.753Z,15.98
2022-09-12T22:05:31.720Z,15.96
2022-09-12T22:08:00.818Z,15.94
2022-09-12T22:10:28.562Z,16.01
2022-09-12T22:12:56.164Z,16.07
2022-09-12T22:15:40.208Z,16.11
2022-09-12T22:18:08.567Z,16.16
2022-09-12T22:20:36.460Z,16.20
2022-09-12T22:23:25.145Z,16.22
2022-09-12T22:25:55.714Z,16.27
2022-09-12T22:28:23.324Z,16.30
2022-09-12T22:30:51.927Z,16.32
2022-09-12T22:33:19.504Z,16.36
2022-09-12T22:35:47.140Z,16.38
2022-09-12T22:38:14.585Z,16.38
2022-09-12T22:40:42.481Z,16.39
2022-09-12T22:43:10.087Z,16.39
2022-09-12T22:45:40.925Z,16.40
2022-09-12T22:48:09.435Z,16.44
2022-09-12T22:50:37.529Z,16.46
2022-09-12T22:53:07.575Z,16.44
2022-09-12T22:55:35.296Z,16.44
2022-09-12T22:58:03.806Z,16.44
2022-09-12T23:00:32.125Z,16.45
2022-09-12T23:02:59.842Z,16.46
2022-09-12T23:05:28.205Z,16.49
2022-09-12T23:07:55.792Z,16.51
2022-09-12T23:10:23.475Z,16.52
2022-09-12T23:12:51.050Z,16.49
2022-09-12T23:15:18.700Z,16.49
2022-09-12T23:17:46.273Z,16.51
2022-09-12T23:20:13.751Z,16.54
2022-09-12T23:22:41.189Z,16.51
2022-09-12T23:25:08.884Z,16.49
2022-09-12T23:27:36.408Z,16.45
2022-09-12T23:30:04.197Z,16.41
2022-09-12T23:32:32.180Z,16.38
2022-09-12T23:34:59.708Z,16.39
2022-09-12T23:37:27.201Z,16.36
2022-09-12T23:39:54.981Z,16.36
2022-09-12T23:42:22.752Z,16.38
2022-09-12T23:44:50.899Z,16.38
2022-09-12T23:47:18.570Z,16.34
2022-09-12T23:49:46.073Z,16.20
2022-09-12T23:52:13.713Z,16.10
2022-09-12T23:54:41.776Z,16.07
2022-09-12T23:57:09.366Z,16.07
2022-09-12T23:59:37.071Z,15.97
